sensor_id;sensor_type;location;lat;lon;timestamp;temperature;humidity
52965;DHT22;42923;53.220;6.528;2023-07-16T00:01:05;15.20;99.90
52965;DHT22;42923;53.220;6.528;2023-07-16T00:03:31;15.20;99.90
52965;DHT22;42923;53.220;6.528;2023-07-16T00:05:57;15.30;99.90
52965;DHT22;42923;53.220;6.528;2023-07-16T00:08:22;15.20;99.90
52965;DHT22;42923;53.220;6.528;2023-07-16T00:10:48;15.10;99.90
52965;DHT22;42923;53.220;6.528;2023-07-16T00:13:14;15.10;99.90
52965;DHT22;42923;53.220;6.528;2023-07-16T00:15:40;15.10;99.90
52965;DHT22;42923;53.220;6.528;2023-07-16T00:18:05;15.10;99.90
52965;DHT22;42923;53.220;6.528;2023-07-16T00:20:32;15.00;99.90
52965;DHT22;42923;53.220;6.528;2023-07-16T00:22:58;15.00;99.90
52965;DHT22;42923;53.220;6.528;2023-07-16T00:25:23;15.00;99.90
52965;DHT22;42923;53.220;6.528;2023-07-16T00:27:49;15.00;99.90
52965;DHT22;42923;53.220;6.528;2023-07-16T00:30:15;14.90;99.90
52965;DHT22;42923;53.220;6.528;2023-07-16T00:32:41;15.00;99.90
52965;DHT22;42923;53.220;6.528;2023-07-16T00:35:07;14.90;99.90
52965;DHT22;42923;53.220;6.528;2023-07-16T00:37:34;15.00;99.90
52965;DHT22;42923;53.220;6.528;2023-07-16T00:40:00;15.00;99.90
52965;DHT22;42923;53.220;6.528;2023-07-16T00:42:26;15.00;99.90
52965;DHT22;42923;53.220;6.528;2023-07-16T00:44:51;15.10;99.90
52965;DHT22;42923;53.220;6.528;2023-07-16T00:47:17;15.20;99.90
52965;DHT22;42923;53.220;6.528;2023-07-16T00:49:44;15.00;99.90
52965;DHT22;42923;53.220;6.528;2023-07-16T00:52:16;15.00;99.90
52965;DHT22;42923;53.220;6.528;2023-07-16T00:54:43;15.10;99.90
52965;DHT22;42923;53.220;6.528;2023-07-16T00:57:09;15.10;99.90
52965;DHT22;42923;53.220;6.528;2023-07-16T00:59:35;15.10;99.90
52965;DHT22;42923;53.220;6.528;2023-07-16T01:02:01;15.10;99.90
52965;DHT22;42923;53.220;6.528;2023-07-16T01:04:27;15.10;99.90
52965;DHT22;42923;53.220;6.528;2023-07-16T01:06:55;15.10;99.90
52965;DHT22;42923;53.220;6.528;2023-07-16T01:09:23;15.10;99.90
52965;DHT22;42923;53.220;6.528;2023-07-16T01:11:50;15.00;99.90
52965;DHT22;42923;53.220;6.528;2023-07-16T01:14:17;15.10;99.90
52965;DHT22;42923;53.220;6.528;2023-07-16T01:16:44;15.20;99.90
52965;DHT22;42923;53.220;6.528;2023-07-16T01:19:10;15.30;99.90
52965;DHT22;42923;53.220;6.528;2023-07-16T01:27:45;15.50;99.90
52965;DHT22;42923;53.220;6.528;2023-07-16T01:30:16;15.60;99.90
52965;DHT22;42923;53.220;6.528;2023-07-16T01:32:44;15.70;99.90
52965;DHT22;42923;53.220;6.528;2023-07-16T01:35:11;15.70;99.90
52965;DHT22;42923;53.220;6.528;2023-07-16T01:37:38;15.70;99.90
52965;DHT22;42923;53.220;6.528;2023-07-16T01:40:05;15.70;99.90
52965;DHT22;42923;53.220;6.528;2023-07-16T01:42:34;15.80;99.90
52965;DHT22;42923;53.220;6.528;2023-07-16T01:45:00;15.70;99.90
52965;DHT22;42923;53.220;6.528;2023-07-16T01:49:55;15.80;99.90
52965;DHT22;42923;53.220;6.528;2023-07-16T01:52:21;15.80;99.90
52965;DHT22;42923;53.220;6.528;2023-07-16T01:54:47;15.80;99.90
52965;DHT22;42923;53.220;6.528;2023-07-16T01:57:13;15.80;99.90
52965;DHT22;42923;53.220;6.528;2023-07-16T01:59:39;15.80;99.90
52965;DHT22;42923;53.220;6.528;2023-07-16T02:02:05;15.80;99.90
52965;DHT22;42923;53.220;6.528;2023-07-16T02:04:31;15.80;99.90
52965;DHT22;42923;53.220;6.528;2023-07-16T02:06:58;15.80;99.90
52965;DHT22;42923;53.220;6.528;2023-07-16T02:09:24;15.90;99.90
52965;DHT22;42923;53.220;6.528;2023-07-16T02:11:51;15.80;99.90
52965;DHT22;42923;53.220;6.528;2023-07-16T02:14:17;15.90;99.90
52965;DHT22;42923;53.220;6.528;2023-07-16T02:16:42;15.90;99.90
52965;DHT22;42923;53.220;6.528;2023-07-16T02:19:08;15.90;99.90
52965;DHT22;42923;53.220;6.528;2023-07-16T02:21:34;15.90;99.90
52965;DHT22;42923;53.220;6.528;2023-07-16T02:24:00;15.90;99.90
52965;DHT22;42923;53.220;6.528;2023-07-16T02:26:26;15.90;99.90
52965;DHT22;42923;53.220;6.528;2023-07-16T02:28:52;15.90;99.90
52965;DHT22;42923;53.220;6.528;2023-07-16T02:31:17;15.80;99.90
52965;DHT22;42923;53.220;6.528;2023-07-16T02:33:43;15.90;99.90
52965;DHT22;42923;53.220;6.528;2023-07-16T02:36:09;15.90;99.90
52965;DHT22;42923;53.220;6.528;2023-07-16T02:38:35;15.90;99.90
52965;DHT22;42923;53.220;6.528;2023-07-16T02:41:00;15.90;99.90
52965;DHT22;42923;53.220;6.528;2023-07-16T02:43:26;16.00;99.90
52965;DHT22;42923;53.220;6.528;2023-07-16T02:45:52;16.00;99.90
52965;DHT22;42923;53.220;6.528;2023-07-16T02:48:17;16.00;99.90
52965;DHT22;42923;53.220;6.528;2023-07-16T02:50:43;16.00;99.90
52965;DHT22;42923;53.220;6.528;2023-07-16T02:53:09;16.10;99.90
52965;DHT22;42923;53.220;6.528;2023-07-16T02:55:35;16.10;99.90
52965;DHT22;42923;53.220;6.528;2023-07-16T02:58:01;16.10;99.90
52965;DHT22;42923;53.220;6.528;2023-07-16T03:00:31;16.20;99.90
52965;DHT22;42923;53.220;6.528;2023-07-16T03:02:57;16.10;99.90
52965;DHT22;42923;53.220;6.528;2023-07-16T03:05:25;16.10;99.90
52965;DHT22;42923;53.220;6.528;2023-07-16T03:07:51;16.10;99.90
52965;DHT22;42923;53.220;6.528;2023-07-16T03:10:16;16.10;99.90
52965;DHT22;42923;53.220;6.528;2023-07-16T03:12:42;16.10;99.90
52965;DHT22;42923;53.220;6.528;2023-07-16T03:15:09;16.10;99.90
52965;DHT22;42923;53.220;6.528;2023-07-16T03:17:34;16.10;99.90
52965;DHT22;42923;53.220;6.528;2023-07-16T03:20:01;16.00;99.90
52965;DHT22;42923;53.220;6.528;2023-07-16T03:22:27;16.00;99.90
52965;DHT22;42923;53.220;6.528;2023-07-16T03:24:53;16.00;99.90
52965;DHT22;42923;53.220;6.528;2023-07-16T03:27:19;15.90;99.90
52965;DHT22;42923;53.220;6.528;2023-07-16T03:29:49;15.90;99.90
52965;DHT22;42923;53.220;6.528;2023-07-16T03:32:17;15.90;99.90
52965;DHT22;42923;53.220;6.528;2023-07-16T03:34:43;15.90;99.90
52965;DHT22;42923;53.220;6.528;2023-07-16T03:37:09;16.00;99.90
52965;DHT22;42923;53.220;6.528;2023-07-16T03:39:34;16.00;99.90
52965;DHT22;42923;53.220;6.528;2023-07-16T03:42:01;16.00;99.90
52965;DHT22;42923;53.220;6.528;2023-07-16T03:44:26;15.90;99.90
52965;DHT22;42923;53.220;6.528;2023-07-16T03:46:52;16.00;99.90
52965;DHT22;42923;53.220;6.528;2023-07-16T03:49:18;16.00;99.90
52965;DHT22;42923;53.220;6.528;2023-07-16T03:51:44;16.00;99.90
52965;DHT22;42923;53.220;6.528;2023-07-16T03:54:10;15.90;99.90
52965;DHT22;42923;53.220;6.528;2023-07-16T03:56:36;15.90;99.90
52965;DHT22;42923;53.220;6.528;2023-07-16T03:59:02;16.00;99.90
52965;DHT22;42923;53.220;6.528;2023-07-16T04:01:28;16.00;99.90
52965;DHT22;42923;53.220;6.528;2023-07-16T04:03:53;16.00;99.90
52965;DHT22;42923;53.220;6.528;2023-07-16T04:06:20;15.90;99.90
52965;DHT22;42923;53.220;6.528;2023-07-16T04:08:46;15.90;99.90
52965;DHT22;42923;53.220;6.528;2023-07-16T04:11:12;16.00;99.90
52965;DHT22;42923;53.220;6.528;2023-07-16T04:13:37;16.00;99.90
52965;DHT22;42923;53.220;6.528;2023-07-16T04:16:03;16.00;99.90
52965;DHT22;42923;53.220;6.528;2023-07-16T04:18:29;16.00;99.90
52965;DHT22;42923;53.220;6.528;2023-07-16T04:20:55;16.00;99.90
52965;DHT22;42923;53.220;6.528;2023-07-16T04:23:21;16.10;99.90
52965;DHT22;42923;53.220;6.528;2023-07-16T04:25:51;16.10;99.90
52965;DHT22;42923;53.220;6.528;2023-07-16T04:28:17;16.10;99.90
52965;DHT22;42923;53.220;6.528;2023-07-16T04:30:43;16.10;99.90
52965;DHT22;42923;53.220;6.528;2023-07-16T04:33:09;16.10;99.90
52965;DHT22;42923;53.220;6.528;2023-07-16T04:35:35;16.10;99.90
52965;DHT22;42923;53.220;6.528;2023-07-16T04:38:00;16.10;99.90
52965;DHT22;42923;53.220;6.528;2023-07-16T04:40:28;16.10;99.90
52965;DHT22;42923;53.220;6.528;2023-07-16T04:42:54;16.20;99.90
52965;DHT22;42923;53.220;6.528;2023-07-16T04:45:20;16.20;99.90
52965;DHT22;42923;53.220;6.528;2023-07-16T04:47:45;16.20;99.90
52965;DHT22;42923;53.220;6.528;2023-07-16T04:50:11;16.30;99.90
52965;DHT22;42923;53.220;6.528;2023-07-16T04:52:37;16.30;99.90
52965;DHT22;42923;53.220;6.528;2023-07-16T04:55:03;16.40;99.90
52965;DHT22;42923;53.220;6.528;2023-07-16T04:57:29;16.40;99.90
52965;DHT22;42923;53.220;6.528;2023-07-16T04:59:55;16.50;99.90
52965;DHT22;42923;53.220;6.528;2023-07-16T05:02:21;16.50;99.90
52965;DHT22;42923;53.220;6.528;2023-07-16T05:04:47;16.60;99.90
52965;DHT22;42923;53.220;6.528;2023-07-16T05:07:15;16.70;99.90
52965;DHT22;42923;53.220;6.528;2023-07-16T05:09:42;16.70;99.90
52965;DHT22;42923;53.220;6.528;2023-07-16T05:12:08;16.80;99.90
52965;DHT22;42923;53.220;6.528;2023-07-16T05:14:45;16.90;99.90
52965;DHT22;42923;53.220;6.528;2023-07-16T05:17:12;17.00;99.90
52965;DHT22;42923;53.220;6.528;2023-07-16T05:19:37;17.10;99.90
52965;DHT22;42923;53.220;6.528;2023-07-16T05:22:03;17.20;99.90
52965;DHT22;42923;53.220;6.528;2023-07-16T05:24:31;17.30;99.90
52965;DHT22;42923;53.220;6.528;2023-07-16T05:26:56;17.30;99.90
52965;DHT22;42923;53.220;6.528;2023-07-16T05:29:22;17.30;99.90
52965;DHT22;42923;53.220;6.528;2023-07-16T05:31:48;17.40;99.90
52965;DHT22;42923;53.220;6.528;2023-07-16T05:34:13;17.40;99.90
52965;DHT22;42923;53.220;6.528;2023-07-16T05:36:41;17.60;99.90
52965;DHT22;42923;53.220;6.528;2023-07-16T05:39:07;17.70;99.90
52965;DHT22;42923;53.220;6.528;2023-07-16T05:41:34;17.80;99.90
52965;DHT22;42923;53.220;6.528;2023-07-16T05:43:59;18.00;99.90
52965;DHT22;42923;53.220;6.528;2023-07-16T05:46:25;18.00;99.90
52965;DHT22;42923;53.220;6.528;2023-07-16T05:48:51;17.90;99.90
52965;DHT22;42923;53.220;6.528;2023-07-16T05:51:17;17.90;99.90
52965;DHT22;42923;53.220;6.528;2023-07-16T05:53:43;18.00;99.90
52965;DHT22;42923;53.220;6.528;2023-07-16T05:56:08;18.00;99.90
52965;DHT22;42923;53.220;6.528;2023-07-16T05:58:34;18.10;99.90
52965;DHT22;42923;53.220;6.528;2023-07-16T06:01:00;18.20;99.90
52965;DHT22;42923;53.220;6.528;2023-07-16T06:03:26;18.20;99.90
52965;DHT22;42923;53.220;6.528;2023-07-16T06:05:51;18.30;99.90
52965;DHT22;42923;53.220;6.528;2023-07-16T06:08:17;18.30;99.90
52965;DHT22;42923;53.220;6.528;2023-07-16T06:10:43;18.40;99.90
52965;DHT22;42923;53.220;6.528;2023-07-16T06:13:08;18.40;99.90
52965;DHT22;42923;53.220;6.528;2023-07-16T06:15:34;18.40;99.90
52965;DHT22;42923;53.220;6.528;2023-07-16T06:18:01;18.40;99.90
52965;DHT22;42923;53.220;6.528;2023-07-16T06:20:27;18.30;99.90
52965;DHT22;42923;53.220;6.528;2023-07-16T06:22:54;18.30;99.90
52965;DHT22;42923;53.220;6.528;2023-07-16T06:25:20;18.30;99.90
52965;DHT22;42923;53.220;6.528;2023-07-16T06:27:45;18.40;99.90
52965;DHT22;42923;53.220;6.528;2023-07-16T06:30:11;18.50;99.90
52965;DHT22;42923;53.220;6.528;2023-07-16T06:32:37;18.40;99.90
52965;DHT22;42923;53.220;6.528;2023-07-16T06:35:03;18.40;99.90
52965;DHT22;42923;53.220;6.528;2023-07-16T06:37:28;18.40;99.90
52965;DHT22;42923;53.220;6.528;2023-07-16T06:39:54;18.40;99.90
52965;DHT22;42923;53.220;6.528;2023-07-16T06:42:20;18.40;99.90
52965;DHT22;42923;53.220;6.528;2023-07-16T06:44:47;18.50;99.90
52965;DHT22;42923;53.220;6.528;2023-07-16T06:47:13;18.50;99.90
52965;DHT22;42923;53.220;6.528;2023-07-16T06:49:39;18.60;99.90
52965;DHT22;42923;53.220;6.528;2023-07-16T06:52:05;18.70;99.90
52965;DHT22;42923;53.220;6.528;2023-07-16T06:54:31;18.80;99.90
52965;DHT22;42923;53.220;6.528;2023-07-16T06:56:57;19.00;99.90
52965;DHT22;42923;53.220;6.528;2023-07-16T06:59:22;19.00;99.90
52965;DHT22;42923;53.220;6.528;2023-07-16T07:01:48;18.90;99.90
52965;DHT22;42923;53.220;6.528;2023-07-16T07:04:14;18.80;99.90
52965;DHT22;42923;53.220;6.528;2023-07-16T07:06:40;18.80;99.90
52965;DHT22;42923;53.220;6.528;2023-07-16T07:09:05;18.80;99.90
52965;DHT22;42923;53.220;6.528;2023-07-16T07:11:31;18.90;99.90
52965;DHT22;42923;53.220;6.528;2023-07-16T07:13:57;19.00;99.90
52965;DHT22;42923;53.220;6.528;2023-07-16T07:16:23;19.10;99.90
52965;DHT22;42923;53.220;6.528;2023-07-16T07:18:49;19.20;99.90
52965;DHT22;42923;53.220;6.528;2023-07-16T07:21:15;19.30;99.90
52965;DHT22;42923;53.220;6.528;2023-07-16T07:23:41;19.30;99.90
52965;DHT22;42923;53.220;6.528;2023-07-16T07:26:06;19.30;99.90
52965;DHT22;42923;53.220;6.528;2023-07-16T07:28:32;19.40;99.90
52965;DHT22;42923;53.220;6.528;2023-07-16T07:30:59;19.50;99.90
52965;DHT22;42923;53.220;6.528;2023-07-16T07:33:25;19.40;99.90
52965;DHT22;42923;53.220;6.528;2023-07-16T07:35:53;19.30;99.90
52965;DHT22;42923;53.220;6.528;2023-07-16T07:38:20;19.10;99.90
52965;DHT22;42923;53.220;6.528;2023-07-16T07:40:46;18.90;99.90
52965;DHT22;42923;53.220;6.528;2023-07-16T07:43:12;18.70;99.90
52965;DHT22;42923;53.220;6.528;2023-07-16T07:45:37;18.60;99.90
52965;DHT22;42923;53.220;6.528;2023-07-16T07:48:04;18.60;99.90
52965;DHT22;42923;53.220;6.528;2023-07-16T07:50:29;18.60;99.90
52965;DHT22;42923;53.220;6.528;2023-07-16T07:52:55;18.60;99.90
52965;DHT22;42923;53.220;6.528;2023-07-16T07:55:21;18.60;99.90
52965;DHT22;42923;53.220;6.528;2023-07-16T07:57:47;18.60;99.90
52965;DHT22;42923;53.220;6.528;2023-07-16T08:00:13;18.50;99.90
52965;DHT22;42923;53.220;6.528;2023-07-16T08:02:40;18.50;99.90
52965;DHT22;42923;53.220;6.528;2023-07-16T08:05:06;18.60;99.90
52965;DHT22;42923;53.220;6.528;2023-07-16T08:07:32;18.60;99.90
52965;DHT22;42923;53.220;6.528;2023-07-16T08:09:58;18.80;99.90
52965;DHT22;42923;53.220;6.528;2023-07-16T08:12:23;19.10;99.90
52965;DHT22;42923;53.220;6.528;2023-07-16T08:14:49;19.20;99.90
52965;DHT22;42923;53.220;6.528;2023-07-16T08:17:15;19.20;99.90
52965;DHT22;42923;53.220;6.528;2023-07-16T08:19:41;19.20;99.90
52965;DHT22;42923;53.220;6.528;2023-07-16T08:22:06;19.20;99.90
52965;DHT22;42923;53.220;6.528;2023-07-16T08:24:32;19.30;99.90
52965;DHT22;42923;53.220;6.528;2023-07-16T08:26:58;19.30;99.90
52965;DHT22;42923;53.220;6.528;2023-07-16T08:29:24;19.20;99.90
52965;DHT22;42923;53.220;6.528;2023-07-16T08:31:50;19.00;99.90
52965;DHT22;42923;53.220;6.528;2023-07-16T08:34:16;18.90;99.90
52965;DHT22;42923;53.220;6.528;2023-07-16T08:36:42;18.80;99.90
52965;DHT22;42923;53.220;6.528;2023-07-16T08:39:09;18.70;99.90
52965;DHT22;42923;53.220;6.528;2023-07-16T08:41:35;18.60;99.90
52965;DHT22;42923;53.220;6.528;2023-07-16T08:44:01;18.50;99.90
52965;DHT22;42923;53.220;6.528;2023-07-16T08:46:27;18.50;99.90
52965;DHT22;42923;53.220;6.528;2023-07-16T08:48:53;18.50;99.90
52965;DHT22;42923;53.220;6.528;2023-07-16T08:51:21;18.50;99.90
52965;DHT22;42923;53.220;6.528;2023-07-16T08:53:47;18.60;99.90
52965;DHT22;42923;53.220;6.528;2023-07-16T08:56:13;18.70;99.90
52965;DHT22;42923;53.220;6.528;2023-07-16T08:58:40;18.90;99.90
52965;DHT22;42923;53.220;6.528;2023-07-16T09:01:08;19.10;99.90
52965;DHT22;42923;53.220;6.528;2023-07-16T09:03:35;19.40;99.90
52965;DHT22;42923;53.220;6.528;2023-07-16T09:06:02;19.60;99.90
52965;DHT22;42923;53.220;6.528;2023-07-16T09:08:28;19.90;99.90
52965;DHT22;42923;53.220;6.528;2023-07-16T09:10:55;20.20;99.90
52965;DHT22;42923;53.220;6.528;2023-07-16T09:13:21;20.40;99.90
52965;DHT22;42923;53.220;6.528;2023-07-16T09:15:53;20.60;99.90
52965;DHT22;42923;53.220;6.528;2023-07-16T09:18:23;20.80;99.90
52965;DHT22;42923;53.220;6.528;2023-07-16T09:20:57;20.90;99.90
52965;DHT22;42923;53.220;6.528;2023-07-16T09:23:27;21.00;99.90
52965;DHT22;42923;53.220;6.528;2023-07-16T09:25:54;21.00;99.90
52965;DHT22;42923;53.220;6.528;2023-07-16T09:28:20;21.10;99.90
52965;DHT22;42923;53.220;6.528;2023-07-16T09:30:46;21.10;99.90
52965;DHT22;42923;53.220;6.528;2023-07-16T09:33:22;21.00;99.90
52965;DHT22;42923;53.220;6.528;2023-07-16T09:35:51;20.90;99.90
52965;DHT22;42923;53.220;6.528;2023-07-16T09:38:17;20.90;99.90
52965;DHT22;42923;53.220;6.528;2023-07-16T09:40:44;21.00;99.90
52965;DHT22;42923;53.220;6.528;2023-07-16T09:43:11;21.20;99.90
52965;DHT22;42923;53.220;6.528;2023-07-16T09:45:37;21.40;99.90
52965;DHT22;42923;53.220;6.528;2023-07-16T09:48:03;21.50;99.90
52965;DHT22;42923;53.220;6.528;2023-07-16T09:50:34;21.70;99.90
52965;DHT22;42923;53.220;6.528;2023-07-16T09:53:00;21.90;99.90
52965;DHT22;42923;53.220;6.528;2023-07-16T09:55:31;22.00;99.90
52965;DHT22;42923;53.220;6.528;2023-07-16T09:57:59;22.00;99.90
52965;DHT22;42923;53.220;6.528;2023-07-16T10:00:26;21.90;99.90
52965;DHT22;42923;53.220;6.528;2023-07-16T10:02:52;21.70;99.90
52965;DHT22;42923;53.220;6.528;2023-07-16T10:05:23;21.70;99.90
52965;DHT22;42923;53.220;6.528;2023-07-16T10:07:54;21.70;99.90
52965;DHT22;42923;53.220;6.528;2023-07-16T10:10:21;21.70;99.90
52965;DHT22;42923;53.220;6.528;2023-07-16T10:12:57;21.70;99.90
52965;DHT22;42923;53.220;6.528;2023-07-16T10:15:29;21.70;99.90
52965;DHT22;42923;53.220;6.528;2023-07-16T10:17:55;21.80;99.90
52965;DHT22;42923;53.220;6.528;2023-07-16T10:20:35;21.90;99.90
52965;DHT22;42923;53.220;6.528;2023-07-16T10:23:16;22.00;99.90
52965;DHT22;42923;53.220;6.528;2023-07-16T10:26:01;22.00;99.90
52965;DHT22;42923;53.220;6.528;2023-07-16T10:28:32;22.10;99.90
52965;DHT22;42923;53.220;6.528;2023-07-16T10:30:58;22.20;99.90
52965;DHT22;42923;53.220;6.528;2023-07-16T10:33:24;22.50;99.90
52965;DHT22;42923;53.220;6.528;2023-07-16T10:35:49;22.60;99.90
52965;DHT22;42923;53.220;6.528;2023-07-16T10:38:15;22.40;99.90
52965;DHT22;42923;53.220;6.528;2023-07-16T10:40:45;22.10;99.90
52965;DHT22;42923;53.220;6.528;2023-07-16T10:43:11;21.60;99.90
52965;DHT22;42923;53.220;6.528;2023-07-16T10:45:37;21.20;99.90
52965;DHT22;42923;53.220;6.528;2023-07-16T10:48:03;21.00;99.90
52965;DHT22;42923;53.220;6.528;2023-07-16T10:50:32;20.90;99.90
52965;DHT22;42923;53.220;6.528;2023-07-16T10:52:59;21.10;99.90
52965;DHT22;42923;53.220;6.528;2023-07-16T10:55:29;21.60;99.90
52965;DHT22;42923;53.220;6.528;2023-07-16T10:57:57;22.00;99.90
52965;DHT22;42923;53.220;6.528;2023-07-16T11:00:23;22.10;99.90
52965;DHT22;42923;53.220;6.528;2023-07-16T11:02:50;22.10;99.90
52965;DHT22;42923;53.220;6.528;2023-07-16T11:05:16;22.20;99.90
52965;DHT22;42923;53.220;6.528;2023-07-16T11:07:51;22.50;99.90
52965;DHT22;42923;53.220;6.528;2023-07-16T11:10:17;22.70;99.90
52965;DHT22;42923;53.220;6.528;2023-07-16T11:12:43;22.90;99.90
52965;DHT22;42923;53.220;6.528;2023-07-16T11:15:10;22.80;99.90
52965;DHT22;42923;53.220;6.528;2023-07-16T11:17:39;22.70;99.90
52965;DHT22;42923;53.220;6.528;2023-07-16T11:20:07;22.60;99.90
52965;DHT22;42923;53.220;6.528;2023-07-16T11:22:37;22.50;99.90
52965;DHT22;42923;53.220;6.528;2023-07-16T11:25:04;22.40;99.90
52965;DHT22;42923;53.220;6.528;2023-07-16T11:27:34;22.40;99.90
52965;DHT22;42923;53.220;6.528;2023-07-16T11:30:00;22.30;99.90
52965;DHT22;42923;53.220;6.528;2023-07-16T11:35:04;21.90;99.90
52965;DHT22;42923;53.220;6.528;2023-07-16T11:37:32;21.60;99.90
52965;DHT22;42923;53.220;6.528;2023-07-16T11:40:04;21.40;99.90
52965;DHT22;42923;53.220;6.528;2023-07-16T11:42:31;21.50;99.90
52965;DHT22;42923;53.220;6.528;2023-07-16T11:44:58;21.70;99.90
52965;DHT22;42923;53.220;6.528;2023-07-16T11:47:24;21.80;99.90
52965;DHT22;42923;53.220;6.528;2023-07-16T11:49:50;21.80;99.90
52965;DHT22;42923;53.220;6.528;2023-07-16T11:52:27;21.80;99.90
52965;DHT22;42923;53.220;6.528;2023-07-16T11:54:56;21.60;99.90
52965;DHT22;42923;53.220;6.528;2023-07-16T11:57:22;21.30;99.90
52965;DHT22;42923;53.220;6.528;2023-07-16T11:59:48;20.90;99.90
52965;DHT22;42923;53.220;6.528;2023-07-16T12:02:14;20.70;99.90
52965;DHT22;42923;53.220;6.528;2023-07-16T12:04:40;20.60;99.90
52965;DHT22;42923;53.220;6.528;2023-07-16T12:07:07;20.50;99.90
52965;DHT22;42923;53.220;6.528;2023-07-16T12:09:33;20.40;99.90
52965;DHT22;42923;53.220;6.528;2023-07-16T12:12:00;20.40;99.90
52965;DHT22;42923;53.220;6.528;2023-07-16T12:14:26;20.50;99.90
52965;DHT22;42923;53.220;6.528;2023-07-16T12:16:52;20.70;99.90
52965;DHT22;42923;53.220;6.528;2023-07-16T12:19:17;21.10;99.90
52965;DHT22;42923;53.220;6.528;2023-07-16T12:21:43;21.50;99.90
52965;DHT22;42923;53.220;6.528;2023-07-16T12:24:09;21.70;99.90
52965;DHT22;42923;53.220;6.528;2023-07-16T12:26:35;21.70;99.90
52965;DHT22;42923;53.220;6.528;2023-07-16T12:29:02;21.60;99.90
52965;DHT22;42923;53.220;6.528;2023-07-16T12:31:30;21.40;99.90
52965;DHT22;42923;53.220;6.528;2023-07-16T12:33:57;21.20;99.90
52965;DHT22;42923;53.220;6.528;2023-07-16T12:36:23;21.20;99.90
52965;DHT22;42923;53.220;6.528;2023-07-16T12:38:49;21.40;99.90
52965;DHT22;42923;53.220;6.528;2023-07-16T12:41:15;21.60;99.90
52965;DHT22;42923;53.220;6.528;2023-07-16T12:43:41;21.60;99.90
52965;DHT22;42923;53.220;6.528;2023-07-16T12:46:07;21.50;99.90
52965;DHT22;42923;53.220;6.528;2023-07-16T12:48:33;21.50;99.90
52965;DHT22;42923;53.220;6.528;2023-07-16T12:50:59;21.50;99.90
52965;DHT22;42923;53.220;6.528;2023-07-16T12:53:25;21.50;99.90
52965;DHT22;42923;53.220;6.528;2023-07-16T12:55:51;21.90;99.90
52965;DHT22;42923;53.220;6.528;2023-07-16T12:58:18;22.40;99.90
52965;DHT22;42923;53.220;6.528;2023-07-16T13:00:43;22.50;99.90
52965;DHT22;42923;53.220;6.528;2023-07-16T13:03:09;22.30;99.90
52965;DHT22;42923;53.220;6.528;2023-07-16T13:05:42;22.10;99.90
52965;DHT22;42923;53.220;6.528;2023-07-16T13:08:09;21.70;99.90
52965;DHT22;42923;53.220;6.528;2023-07-16T13:10:35;21.50;99.90
52965;DHT22;42923;53.220;6.528;2023-07-16T13:13:00;21.20;99.90
52965;DHT22;42923;53.220;6.528;2023-07-16T13:15:26;21.10;99.90
52965;DHT22;42923;53.220;6.528;2023-07-16T13:17:52;21.10;99.90
52965;DHT22;42923;53.220;6.528;2023-07-16T13:20:18;21.10;99.90
52965;DHT22;42923;53.220;6.528;2023-07-16T13:22:45;21.00;99.90
52965;DHT22;42923;53.220;6.528;2023-07-16T13:25:11;20.90;99.90
52965;DHT22;42923;53.220;6.528;2023-07-16T13:27:37;21.00;99.90
52965;DHT22;42923;53.220;6.528;2023-07-16T13:30:03;21.70;99.90
52965;DHT22;42923;53.220;6.528;2023-07-16T13:32:29;22.30;99.90
52965;DHT22;42923;53.220;6.528;2023-07-16T13:34:54;22.60;99.90
52965;DHT22;42923;53.220;6.528;2023-07-16T13:37:20;23.00;99.90
52965;DHT22;42923;53.220;6.528;2023-07-16T13:39:46;23.70;99.90
52965;DHT22;42923;53.220;6.528;2023-07-16T13:42:12;24.40;99.90
52965;DHT22;42923;53.220;6.528;2023-07-16T13:44:37;24.90;99.90
52965;DHT22;42923;53.220;6.528;2023-07-16T13:47:03;24.80;99.90
52965;DHT22;42923;53.220;6.528;2023-07-16T13:49:29;24.60;99.90
52965;DHT22;42923;53.220;6.528;2023-07-16T13:51:55;24.60;99.90
52965;DHT22;42923;53.220;6.528;2023-07-16T13:54:21;24.70;99.90
52965;DHT22;42923;53.220;6.528;2023-07-16T13:56:48;24.70;99.90
52965;DHT22;42923;53.220;6.528;2023-07-16T13:59:14;24.40;99.90
52965;DHT22;42923;53.220;6.528;2023-07-16T14:01:40;24.20;99.90
52965;DHT22;42923;53.220;6.528;2023-07-16T14:04:06;24.20;99.90
52965;DHT22;42923;53.220;6.528;2023-07-16T14:06:32;24.50;99.90
52965;DHT22;42923;53.220;6.528;2023-07-16T14:08:58;24.50;99.00
52965;DHT22;42923;53.220;6.528;2023-07-16T14:11:25;24.20;98.10
52965;DHT22;42923;53.220;6.528;2023-07-16T14:13:51;24.00;99.90
52965;DHT22;42923;53.220;6.528;2023-07-16T14:16:18;24.10;99.90
52965;DHT22;42923;53.220;6.528;2023-07-16T14:18:43;24.30;99.90
52965;DHT22;42923;53.220;6.528;2023-07-16T14:21:09;24.50;97.00
52965;DHT22;42923;53.220;6.528;2023-07-16T14:23:36;24.70;95.80
52965;DHT22;42923;53.220;6.528;2023-07-16T14:26:02;24.90;94.40
52965;DHT22;42923;53.220;6.528;2023-07-16T14:28:28;25.10;94.40
52965;DHT22;42923;53.220;6.528;2023-07-16T14:30:54;25.50;94.50
52965;DHT22;42923;53.220;6.528;2023-07-16T14:33:21;25.90;92.00
52965;DHT22;42923;53.220;6.528;2023-07-16T14:35:47;26.20;87.70
52965;DHT22;42923;53.220;6.528;2023-07-16T14:38:12;26.30;82.60
52965;DHT22;42923;53.220;6.528;2023-07-16T14:40:38;26.60;82.90
52965;DHT22;42923;53.220;6.528;2023-07-16T14:43:07;27.00;81.50
52965;DHT22;42923;53.220;6.528;2023-07-16T14:45:34;27.20;76.60
52965;DHT22;42923;53.220;6.528;2023-07-16T14:48:00;27.10;76.40
52965;DHT22;42923;53.220;6.528;2023-07-16T14:50:26;26.80;73.60
52965;DHT22;42923;53.220;6.528;2023-07-16T14:52:52;26.60;76.60
52965;DHT22;42923;53.220;6.528;2023-07-16T14:55:18;26.70;75.60
52965;DHT22;42923;53.220;6.528;2023-07-16T14:57:44;26.80;75.90
52965;DHT22;42923;53.220;6.528;2023-07-16T15:00:10;26.60;74.10
52965;DHT22;42923;53.220;6.528;2023-07-16T15:02:37;26.10;73.60
52965;DHT22;42923;53.220;6.528;2023-07-16T15:05:04;25.50;74.00
52965;DHT22;42923;53.220;6.528;2023-07-16T15:07:30;25.10;75.60
52965;DHT22;42923;53.220;6.528;2023-07-16T15:09:56;24.70;76.60
52965;DHT22;42923;53.220;6.528;2023-07-16T15:12:22;24.40;77.90
52965;DHT22;42923;53.220;6.528;2023-07-16T15:14:48;24.10;78.60
52965;DHT22;42923;53.220;6.528;2023-07-16T15:17:14;23.90;78.60
52965;DHT22;42923;53.220;6.528;2023-07-16T15:19:40;23.50;78.70
52965;DHT22;42923;53.220;6.528;2023-07-16T15:22:08;23.20;79.40
52965;DHT22;42923;53.220;6.528;2023-07-16T15:24:35;22.90;81.40
52965;DHT22;42923;53.220;6.528;2023-07-16T15:27:01;22.90;82.60
52965;DHT22;42923;53.220;6.528;2023-07-16T15:29:28;23.00;83.40
52965;DHT22;42923;53.220;6.528;2023-07-16T15:31:53;23.20;85.20
52965;DHT22;42923;53.220;6.528;2023-07-16T15:34:19;23.30;85.10
52965;DHT22;42923;53.220;6.528;2023-07-16T15:36:45;23.10;85.50